sensor_id;sensor_type;location;lat;lon;timestamp;P1;durP1;ratioP1;P2;durP2;ratioP2
58372;SDS011;44177;43.356;27.672;2022-12-18T00:01:05;3.15;;;2.55;;
58372;SDS011;44177;43.356;27.672;2022-12-18T00:03:38;5.28;;;2.50;;
58372;SDS011;44177;43.356;27.672;2022-12-18T00:06:03;2.92;;;2.47;;
58372;SDS011;44177;43.356;27.672;2022-12-18T00:08:29;3.35;;;2.60;;
58372;SDS011;44177;43.356;27.672;2022-12-18T00:10:55;3.60;;;2.60;;
58372;SDS011;44177;43.356;27.672;2022-12-18T00:13:20;3.72;;;2.40;;
58372;SDS011;44177;43.356;27.672;2022-12-18T00:15:46;3.15;;;2.65;;
58372;SDS011;44177;43.356;27.672;2022-12-18T00:18:11;2.80;;;2.50;;
58372;SDS011;44177;43.356;27.672;2022-12-18T00:20:37;2.80;;;2.50;;
58372;SDS011;44177;43.356;27.672;2022-12-18T00:23:05;2.50;;;2.30;;
58372;SDS011;44177;43.356;27.672;2022-12-18T00:25:35;2.70;;;2.30;;
58372;SDS011;44177;43.356;27.672;2022-12-18T00:28:01;3.28;;;2.60;;
58372;SDS011;44177;43.356;27.672;2022-12-18T00:30:28;3.13;;;2.58;;
58372;SDS011;44177;43.356;27.672;2022-12-18T00:32:54;3.35;;;2.50;;
58372;SDS011;44177;43.356;27.672;2022-12-18T00:35:19;3.28;;;2.58;;
58372;SDS011;44177;43.356;27.672;2022-12-18T00:37:45;3.40;;;2.30;;
58372;SDS011;44177;43.356;27.672;2022-12-18T00:40:11;2.90;;;2.30;;
58372;SDS011;44177;43.356;27.672;2022-12-18T00:42:36;3.95;;;2.97;;
58372;SDS011;44177;43.356;27.672;2022-12-18T00:45:30;3.03;;;2.28;;
58372;SDS011;44177;43.356;27.672;2022-12-18T00:47:56;2.70;;;2.50;;
58372;SDS011;44177;43.356;27.672;2022-12-18T00:50:23;2.92;;;2.42;;
58372;SDS011;44177;43.356;27.672;2022-12-18T00:52:50;3.10;;;2.30;;
58372;SDS011;44177;43.356;27.672;2022-12-18T00:55:16;2.60;;;2.33;;
58372;SDS011;44177;43.356;27.672;2022-12-18T00:57:42;3.13;;;2.33;;
58372;SDS011;44177;43.356;27.672;2022-12-18T01:00:08;2.72;;;2.20;;
58372;SDS011;44177;43.356;27.672;2022-12-18T01:02:37;2.97;;;2.25;;
58372;SDS011;44177;43.356;27.672;2022-12-18T01:05:03;3.05;;;2.45;;
58372;SDS011;44177;43.356;27.672;2022-12-18T01:07:29;2.58;;;2.30;;
58372;SDS011;44177;43.356;27.672;2022-12-18T01:09:54;4.00;;;2.45;;
58372;SDS011;44177;43.356;27.672;2022-12-18T01:12:20;3.05;;;2.38;;
58372;SDS011;44177;43.356;27.672;2022-12-18T01:14:45;2.42;;;2.22;;
58372;SDS011;44177;43.356;27.672;2022-12-18T01:17:11;2.80;;;2.35;;
58372;SDS011;44177;43.356;27.672;2022-12-18T01:19:36;2.30;;;2.05;;
58372;SDS011;44177;43.356;27.672;2022-12-18T01:22:02;2.58;;;2.28;;
58372;SDS011;44177;43.356;27.672;2022-12-18T01:24:27;2.60;;;2.15;;
58372;SDS011;44177;43.356;27.672;2022-12-18T01:26:52;2.78;;;2.00;;
58372;SDS011;44177;43.356;27.672;2022-12-18T01:29:18;3.33;;;2.40;;
58372;SDS011;44177;43.356;27.672;2022-12-18T01:31:43;2.45;;;2.25;;
58372;SDS011;44177;43.356;27.672;2022-12-18T01:34:09;2.95;;;2.20;;
58372;SDS011;44177;43.356;27.672;2022-12-18T01:36:36;2.33;;;2.08;;
58372;SDS011;44177;43.356;27.672;2022-12-18T01:39:12;2.67;;;2.10;;
58372;SDS011;44177;43.356;27.672;2022-12-18T01:41:39;2.42;;;2.22;;
58372;SDS011;44177;43.356;27.672;2022-12-18T01:49:56;2.30;;;2.10;;
58372;SDS011;44177;43.356;27.672;2022-12-18T01:52:24;2.55;;;2.15;;
58372;SDS011;44177;43.356;27.672;2022-12-18T01:54:53;3.42;;;2.35;;
58372;SDS011;44177;43.356;27.672;2022-12-18T01:57:20;2.28;;;2.08;;
58372;SDS011;44177;43.356;27.672;2022-12-18T01:59:46;3.30;;;2.20;;
58372;SDS011;44177;43.356;27.672;2022-12-18T02:02:15;2.72;;;2.10;;
58372;SDS011;44177;43.356;27.672;2022-12-18T02:04:42;2.90;;;2.10;;
58372;SDS011;44177;43.356;27.672;2022-12-18T02:10:24;2.70;;;2.40;;
58372;SDS011;44177;43.356;27.672;2022-12-18T02:15:48;2.70;;;2.28;;
58372;SDS011;44177;43.356;27.672;2022-12-18T02:18:38;2.60;;;2.28;;
58372;SDS011;44177;43.356;27.672;2022-12-18T02:29:02;1.80;;;1.65;;
58372;SDS011;44177;43.356;27.672;2022-12-18T02:31:35;2.25;;;2.05;;
58372;SDS011;44177;43.356;27.672;2022-12-18T02:34:04;2.50;;;1.98;;
58372;SDS011;44177;43.356;27.672;2022-12-18T02:36:33;2.22;;;1.95;;
58372;SDS011;44177;43.356;27.672;2022-12-18T02:39:02;2.00;;;1.80;;
58372;SDS011;44177;43.356;27.672;2022-12-18T02:41:30;2.50;;;1.85;;
58372;SDS011;44177;43.356;27.672;2022-12-18T02:43:58;2.50;;;2.00;;
58372;SDS011;44177;43.356;27.672;2022-12-18T02:52:15;2.73;;;2.03;;
58372;SDS011;44177;43.356;27.672;2022-12-18T02:57:33;2.30;;;2.00;;
58372;SDS011;44177;43.356;27.672;2022-12-18T03:00:12;2.40;;;2.20;;
58372;SDS011;44177;43.356;27.672;2022-12-18T03:02:48;2.50;;;1.98;;
58372;SDS011;44177;43.356;27.672;2022-12-18T03:05:37;2.38;;;2.13;;
58372;SDS011;44177;43.356;27.672;2022-12-18T03:08:07;2.03;;;1.80;;
58372;SDS011;44177;43.356;27.672;2022-12-18T03:10:38;1.90;;;1.70;;
58372;SDS011;44177;43.356;27.672;2022-12-18T03:13:15;2.30;;;1.95;;
58372;SDS011;44177;43.356;27.672;2022-12-18T03:15:48;2.10;;;1.90;;
58372;SDS011;44177;43.356;27.672;2022-12-18T03:20:44;2.70;;;2.30;;
58372;SDS011;44177;43.356;27.672;2022-12-18T03:23:13;2.10;;;1.90;;
58372;SDS011;44177;43.356;27.672;2022-12-18T03:25:46;2.00;;;1.77;;
58372;SDS011;44177;43.356;27.672;2022-12-18T03:28:16;2.83;;;2.08;;
58372;SDS011;44177;43.356;27.672;2022-12-18T03:30:46;2.70;;;2.10;;
58372;SDS011;44177;43.356;27.672;2022-12-18T03:33:16;1.90;;;1.70;;
58372;SDS011;44177;43.356;27.672;2022-12-18T03:36:03;2.20;;;1.95;;
58372;SDS011;44177;43.356;27.672;2022-12-18T03:38:29;2.35;;;1.83;;
58372;SDS011;44177;43.356;27.672;2022-12-18T03:41:09;2.10;;;1.90;;
58372;SDS011;44177;43.356;27.672;2022-12-18T03:46:33;2.20;;;1.90;;
58372;SDS011;44177;43.356;27.672;2022-12-18T03:49:11;2.22;;;2.00;;
58372;SDS011;44177;43.356;27.672;2022-12-18T03:51:50;2.95;;;2.22;;
58372;SDS011;44177;43.356;27.672;2022-12-18T03:54:21;2.13;;;1.92;;
58372;SDS011;44177;43.356;27.672;2022-12-18T03:56:49;2.53;;;2.00;;
58372;SDS011;44177;43.356;27.672;2022-12-18T03:59:22;1.95;;;1.75;;
58372;SDS011;44177;43.356;27.672;2022-12-18T04:01:50;2.42;;;2.10;;
58372;SDS011;44177;43.356;27.672;2022-12-18T04:04:19;2.80;;;2.03;;
58372;SDS011;44177;43.356;27.672;2022-12-18T04:06:46;2.03;;;1.80;;
58372;SDS011;44177;43.356;27.672;2022-12-18T04:09:13;2.63;;;2.10;;
58372;SDS011;44177;43.356;27.672;2022-12-18T04:11:40;2.40;;;2.20;;
58372;SDS011;44177;43.356;27.672;2022-12-18T04:14:08;2.67;;;2.20;;
58372;SDS011;44177;43.356;27.672;2022-12-18T04:16:35;2.75;;;2.38;;
58372;SDS011;44177;43.356;27.672;2022-12-18T04:19:00;2.80;;;2.45;;
58372;SDS011;44177;43.356;27.672;2022-12-18T04:21:25;2.50;;;2.20;;
58372;SDS011;44177;43.356;27.672;2022-12-18T04:23:51;2.75;;;2.30;;
58372;SDS011;44177;43.356;27.672;2022-12-18T04:26:16;3.95;;;2.85;;
58372;SDS011;44177;43.356;27.672;2022-12-18T04:28:42;3.97;;;2.60;;
58372;SDS011;44177;43.356;27.672;2022-12-18T04:31:07;2.95;;;2.42;;
58372;SDS011;44177;43.356;27.672;2022-12-18T04:33:33;3.15;;;2.63;;
58372;SDS011;44177;43.356;27.672;2022-12-18T04:35:58;3.88;;;2.60;;
58372;SDS011;44177;43.356;27.672;2022-12-18T04:38:24;3.80;;;2.90;;
58372;SDS011;44177;43.356;27.672;2022-12-18T04:40:49;3.40;;;2.83;;
58372;SDS011;44177;43.356;27.672;2022-12-18T04:43:15;3.53;;;3.00;;
58372;SDS011;44177;43.356;27.672;2022-12-18T04:45:40;4.60;;;3.20;;
58372;SDS011;44177;43.356;27.672;2022-12-18T04:48:06;3.53;;;2.92;;
58372;SDS011;44177;43.356;27.672;2022-12-18T04:50:31;3.03;;;2.53;;
58372;SDS011;44177;43.356;27.672;2022-12-18T04:52:57;3.97;;;2.80;;
58372;SDS011;44177;43.356;27.672;2022-12-18T04:55:26;3.80;;;2.63;;
58372;SDS011;44177;43.356;27.672;2022-12-18T04:57:52;4.38;;;3.10;;
58372;SDS011;44177;43.356;27.672;2022-12-18T05:00:17;4.25;;;3.20;;
58372;SDS011;44177;43.356;27.672;2022-12-18T05:02:43;4.38;;;3.22;;
58372;SDS011;44177;43.356;27.672;2022-12-18T05:05:08;4.32;;;3.10;;
58372;SDS011;44177;43.356;27.672;2022-12-18T05:07:34;4.05;;;3.10;;
58372;SDS011;44177;43.356;27.672;2022-12-18T05:10:00;4.38;;;3.25;;
58372;SDS011;44177;43.356;27.672;2022-12-18T05:12:25;3.85;;;2.92;;
58372;SDS011;44177;43.356;27.672;2022-12-18T05:14:51;4.32;;;3.20;;
58372;SDS011;44177;43.356;27.672;2022-12-18T05:17:17;3.97;;;3.17;;
58372;SDS011;44177;43.356;27.672;2022-12-18T05:19:42;4.97;;;3.60;;
58372;SDS011;44177;43.356;27.672;2022-12-18T05:22:08;5.00;;;3.70;;
58372;SDS011;44177;43.356;27.672;2022-12-18T05:24:34;4.95;;;3.83;;
58372;SDS011;44177;43.356;27.672;2022-12-18T05:26:59;5.00;;;3.95;;
58372;SDS011;44177;43.356;27.672;2022-12-18T05:29:25;5.05;;;3.85;;
58372;SDS011;44177;43.356;27.672;2022-12-18T05:31:50;5.70;;;3.92;;
58372;SDS011;44177;43.356;27.672;2022-12-18T05:34:16;4.68;;;3.60;;
58372;SDS011;44177;43.356;27.672;2022-12-18T05:36:42;4.50;;;3.60;;
58372;SDS011;44177;43.356;27.672;2022-12-18T05:39:07;6.43;;;4.28;;
58372;SDS011;44177;43.356;27.672;2022-12-18T05:41:33;5.88;;;3.97;;
58372;SDS011;44177;43.356;27.672;2022-12-18T05:43:58;6.15;;;4.03;;
58372;SDS011;44177;43.356;27.672;2022-12-18T05:46:24;5.50;;;3.92;;
58372;SDS011;44177;43.356;27.672;2022-12-18T05:48:49;7.50;;;4.25;;
58372;SDS011;44177;43.356;27.672;2022-12-18T05:51:16;5.80;;;4.18;;
58372;SDS011;44177;43.356;27.672;2022-12-18T05:53:45;7.07;;;4.38;;
58372;SDS011;44177;43.356;27.672;2022-12-18T05:56:12;6.68;;;4.75;;
58372;SDS011;44177;43.356;27.672;2022-12-18T05:58:40;8.00;;;5.07;;
58372;SDS011;44177;43.356;27.672;2022-12-18T06:01:10;7.38;;;4.95;;
58372;SDS011;44177;43.356;27.672;2022-12-18T06:03:36;7.82;;;5.32;;
58372;SDS011;44177;43.356;27.672;2022-12-18T06:06:01;6.32;;;4.70;;
58372;SDS011;44177;43.356;27.672;2022-12-18T06:08:27;8.15;;;5.47;;
58372;SDS011;44177;43.356;27.672;2022-12-18T06:10:53;7.95;;;5.63;;
58372;SDS011;44177;43.356;27.672;2022-12-18T06:13:19;8.88;;;5.57;;
58372;SDS011;44177;43.356;27.672;2022-12-18T06:15:45;9.50;;;5.63;;
58372;SDS011;44177;43.356;27.672;2022-12-18T06:18:11;8.88;;;6.07;;
58372;SDS011;44177;43.356;27.672;2022-12-18T06:20:36;9.55;;;6.38;;
58372;SDS011;44177;43.356;27.672;2022-12-18T06:23:04;10.70;;;6.80;;
58372;SDS011;44177;43.356;27.672;2022-12-18T06:25:30;8.07;;;5.63;;
58372;SDS011;44177;43.356;27.672;2022-12-18T06:27:55;10.75;;;7.00;;
58372;SDS011;44177;43.356;27.672;2022-12-18T06:30:21;9.38;;;6.30;;
58372;SDS011;44177;43.356;27.672;2022-12-18T06:32:48;9.02;;;6.60;;
58372;SDS011;44177;43.356;27.672;2022-12-18T06:35:14;11.80;;;7.15;;
58372;SDS011;44177;43.356;27.672;2022-12-18T06:37:39;10.20;;;6.90;;
58372;SDS011;44177;43.356;27.672;2022-12-18T06:40:05;11.60;;;7.80;;
58372;SDS011;44177;43.356;27.672;2022-12-18T06:42:31;9.75;;;7.03;;
58372;SDS011;44177;43.356;27.672;2022-12-18T06:44:57;10.57;;;7.00;;
58372;SDS011;44177;43.356;27.672;2022-12-18T06:47:22;11.48;;;7.20;;
58372;SDS011;44177;43.356;27.672;2022-12-18T06:49:48;11.77;;;7.15;;
58372;SDS011;44177;43.356;27.672;2022-12-18T06:52:16;8.32;;;6.18;;
58372;SDS011;44177;43.356;27.672;2022-12-18T06:54:42;10.55;;;7.07;;
58372;SDS011;44177;43.356;27.672;2022-12-18T06:57:07;9.75;;;6.57;;
58372;SDS011;44177;43.356;27.672;2022-12-18T06:59:33;9.98;;;6.93;;
58372;SDS011;44177;43.356;27.672;2022-12-18T07:01:58;11.10;;;7.05;;
58372;SDS011;44177;43.356;27.672;2022-12-18T07:04:27;12.43;;;7.75;;
58372;SDS011;44177;43.356;27.672;2022-12-18T07:06:56;11.57;;;7.32;;
58372;SDS011;44177;43.356;27.672;2022-12-18T07:09:22;10.25;;;7.72;;
58372;SDS011;44177;43.356;27.672;2022-12-18T07:11:48;11.50;;;8.00;;
58372;SDS011;44177;43.356;27.672;2022-12-18T07:14:13;12.10;;;7.70;;
58372;SDS011;44177;43.356;27.672;2022-12-18T07:16:39;11.82;;;8.15;;
58372;SDS011;44177;43.356;27.672;2022-12-18T07:19:05;12.48;;;7.85;;
58372;SDS011;44177;43.356;27.672;2022-12-18T07:21:31;11.85;;;7.90;;
58372;SDS011;44177;43.356;27.672;2022-12-18T07:23:56;10.57;;;7.28;;
58372;SDS011;44177;43.356;27.672;2022-12-18T07:26:22;12.38;;;7.82;;
58372;SDS011;44177;43.356;27.672;2022-12-18T07:28:48;12.75;;;7.97;;
58372;SDS011;44177;43.356;27.672;2022-12-18T07:31:15;12.55;;;8.70;;
58372;SDS011;44177;43.356;27.672;2022-12-18T07:33:44;12.95;;;8.13;;
58372;SDS011;44177;43.356;27.672;2022-12-18T07:36:10;11.90;;;8.77;;
58372;SDS011;44177;43.356;27.672;2022-12-18T07:38:36;15.10;;;8.45;;
58372;SDS011;44177;43.356;27.672;2022-12-18T07:41:03;13.07;;;8.75;;
58372;SDS011;44177;43.356;27.672;2022-12-18T07:43:30;12.05;;;8.15;;
58372;SDS011;44177;43.356;27.672;2022-12-18T07:45:56;13.60;;;9.27;;
58372;SDS011;44177;43.356;27.672;2022-12-18T07:48:21;12.20;;;7.63;;
58372;SDS011;44177;43.356;27.672;2022-12-18T07:50:47;13.02;;;8.65;;
58372;SDS011;44177;43.356;27.672;2022-12-18T07:53:12;14.52;;;9.27;;
58372;SDS011;44177;43.356;27.672;2022-12-18T07:55:39;12.90;;;9.07;;
58372;SDS011;44177;43.356;27.672;2022-12-18T07:58:08;12.75;;;8.77;;
58372;SDS011;44177;43.356;27.672;2022-12-18T08:00:34;12.05;;;8.30;;
58372;SDS011;44177;43.356;27.672;2022-12-18T08:02:59;15.13;;;9.43;;
58372;SDS011;44177;43.356;27.672;2022-12-18T08:05:25;14.15;;;9.50;;
58372;SDS011;44177;43.356;27.672;2022-12-18T08:07:51;16.27;;;9.82;;
58372;SDS011;44177;43.356;27.672;2022-12-18T08:10:17;15.40;;;9.95;;
58372;SDS011;44177;43.356;27.672;2022-12-18T08:12:43;15.13;;;9.57;;
58372;SDS011;44177;43.356;27.672;2022-12-18T08:15:08;15.15;;;9.68;;
58372;SDS011;44177;43.356;27.672;2022-12-18T08:17:34;14.40;;;9.52;;
58372;SDS011;44177;43.356;27.672;2022-12-18T08:19:59;16.25;;;9.98;;
58372;SDS011;44177;43.356;27.672;2022-12-18T08:22:25;15.80;;;10.60;;
58372;SDS011;44177;43.356;27.672;2022-12-18T08:24:50;15.88;;;10.07;;
58372;SDS011;44177;43.356;27.672;2022-12-18T08:27:16;15.70;;;9.57;;
58372;SDS011;44177;43.356;27.672;2022-12-18T08:29:42;14.48;;;9.50;;
58372;SDS011;44177;43.356;27.672;2022-12-18T08:32:07;17.55;;;10.65;;
58372;SDS011;44177;43.356;27.672;2022-12-18T08:34:33;15.27;;;9.75;;
58372;SDS011;44177;43.356;27.672;2022-12-18T08:36:58;15.00;;;10.27;;
58372;SDS011;44177;43.356;27.672;2022-12-18T08:39:23;14.77;;;10.07;;
58372;SDS011;44177;43.356;27.672;2022-12-18T08:41:49;15.95;;;10.38;;
58372;SDS011;44177;43.356;27.672;2022-12-18T08:44:33;15.48;;;10.10;;
58372;SDS011;44177;43.356;27.672;2022-12-18T08:47:05;17.50;;;10.73;;
58372;SDS011;44177;43.356;27.672;2022-12-18T08:49:31;14.85;;;9.90;;
58372;SDS011;44177;43.356;27.672;2022-12-18T08:51:57;16.63;;;10.23;;
58372;SDS011;44177;43.356;27.672;2022-12-18T08:54:23;13.98;;;9.80;;
58372;SDS011;44177;43.356;27.672;2022-12-18T08:56:49;15.73;;;10.63;;
58372;SDS011;44177;43.356;27.672;2022-12-18T08:59:15;15.52;;;10.40;;
58372;SDS011;44177;43.356;27.672;2022-12-18T09:01:41;15.50;;;10.40;;
58372;SDS011;44177;43.356;27.672;2022-12-18T09:04:07;15.48;;;9.93;;
58372;SDS011;44177;43.356;27.672;2022-12-18T09:06:34;17.35;;;10.27;;
58372;SDS011;44177;43.356;27.672;2022-12-18T09:08:59;16.58;;;10.45;;
58372;SDS011;44177;43.356;27.672;2022-12-18T09:11:25;16.10;;;9.98;;
58372;SDS011;44177;43.356;27.672;2022-12-18T09:13:52;15.18;;;9.77;;
58372;SDS011;44177;43.356;27.672;2022-12-18T09:16:19;14.13;;;9.45;;
58372;SDS011;44177;43.356;27.672;2022-12-18T09:18:45;15.43;;;10.52;;
58372;SDS011;44177;43.356;27.672;2022-12-18T09:21:15;15.20;;;10.43;;
58372;SDS011;44177;43.356;27.672;2022-12-18T09:23:43;15.63;;;10.25;;
58372;SDS011;44177;43.356;27.672;2022-12-18T09:26:13;17.75;;;11.25;;
58372;SDS011;44177;43.356;27.672;2022-12-18T09:28:39;17.17;;;11.40;;
58372;SDS011;44177;43.356;27.672;2022-12-18T09:31:05;16.15;;;10.07;;
58372;SDS011;44177;43.356;27.672;2022-12-18T09:33:32;16.63;;;10.80;;
58372;SDS011;44177;43.356;27.672;2022-12-18T09:36:00;17.00;;;11.13;;
58372;SDS011;44177;43.356;27.672;2022-12-18T09:38:27;16.50;;;10.40;;
58372;SDS011;44177;43.356;27.672;2022-12-18T09:40:53;18.55;;;11.60;;
58372;SDS011;44177;43.356;27.672;2022-12-18T09:43:26;15.10;;;10.10;;
58372;SDS011;44177;43.356;27.672;2022-12-18T09:46:01;16.98;;;10.63;;
58372;SDS011;44177;43.356;27.672;2022-12-18T09:48:37;17.10;;;11.23;;
58372;SDS011;44177;43.356;27.672;2022-12-18T09:51:11;16.30;;;10.93;;
58372;SDS011;44177;43.356;27.672;2022-12-18T09:53:50;17.35;;;11.05;;
58372;SDS011;44177;43.356;27.672;2022-12-18T09:56:20;17.05;;;10.98;;
58372;SDS011;44177;43.356;27.672;2022-12-18T09:58:57;17.80;;;11.20;;
58372;SDS011;44177;43.356;27.672;2022-12-18T10:01:24;16.95;;;10.88;;
58372;SDS011;44177;43.356;27.672;2022-12-18T10:03:51;17.42;;;10.77;;
58372;SDS011;44177;43.356;27.672;2022-12-18T10:12:02;17.50;;;11.23;;
58372;SDS011;44177;43.356;27.672;2022-12-18T10:14:43;18.33;;;11.70;;
58372;SDS011;44177;43.356;27.672;2022-12-18T10:20:23;16.15;;;10.75;;
58372;SDS011;44177;43.356;27.672;2022-12-18T10:28:30;15.50;;;10.23;;
58372;SDS011;44177;43.356;27.672;2022-12-18T10:30:57;18.17;;;11.52;;
58372;SDS011;44177;43.356;27.672;2022-12-18T10:33:24;17.95;;;11.00;;
58372;SDS011;44177;43.356;27.672;2022-12-18T10:35:53;16.52;;;10.60;;
58372;SDS011;44177;43.356;27.672;2022-12-18T10:38:21;16.42;;;10.93;;
58372;SDS011;44177;43.356;27.672;2022-12-18T10:40:59;17.02;;;10.98;;
58372;SDS011;44177;43.356;27.672;2022-12-18T10:43:32;17.55;;;11.55;;
58372;SDS011;44177;43.356;27.672;2022-12-18T10:46:11;17.77;;;11.70;;
58372;SDS011;44177;43.356;27.672;2022-12-18T10:51:25;16.05;;;10.68;;
58372;SDS011;44177;43.356;27.672;2022-12-18T10:53:54;18.98;;;11.07;;
58372;SDS011;44177;43.356;27.672;2022-12-18T10:56:23;16.90;;;10.65;;
58372;SDS011;44177;43.356;27.672;2022-12-18T10:58:55;17.67;;;11.00;;
58372;SDS011;44177;43.356;27.672;2022-12-18T11:04:21;16.23;;;10.77;;
58372;SDS011;44177;43.356;27.672;2022-12-18T11:07:19;17.58;;;11.05;;
58372;SDS011;44177;43.356;27.672;2022-12-18T11:09:39;17.05;;;11.32;;
58372;SDS011;44177;43.356;27.672;2022-12-18T11:12:18;15.98;;;10.45;;
58372;SDS011;44177;43.356;27.672;2022-12-18T11:20:07;16.60;;;10.68;;
58372;SDS011;44177;43.356;27.672;2022-12-18T11:23:03;16.70;;;10.38;;
58372;SDS011;44177;43.356;27.672;2022-12-18T11:25:35;15.45;;;10.23;;
58372;SDS011;44177;43.356;27.672;2022-12-18T11:28:03;16.52;;;10.32;;
58372;SDS011;44177;43.356;27.672;2022-12-18T11:30:47;17.33;;;11.02;;
58372;SDS011;44177;43.356;27.672;2022-12-18T11:33:14;15.75;;;10.18;;
58372;SDS011;44177;43.356;27.672;2022-12-18T11:35:48;15.40;;;10.27;;
58372;SDS011;44177;43.356;27.672;2022-12-18T11:38:29;15.35;;;10.45;;
58372;SDS011;44177;43.356;27.672;2022-12-18T11:44:13;18.02;;;10.80;;
58372;SDS011;44177;43.356;27.672;2022-12-18T11:46:32;16.98;;;10.98;;
58372;SDS011;44177;43.356;27.672;2022-12-18T11:52:10;17.17;;;10.82;;
58372;SDS011;44177;43.356;27.672;2022-12-18T11:54:52;19.50;;;11.40;;
58372;SDS011;44177;43.356;27.672;2022-12-18T11:57:32;18.55;;;10.77;;
58372;SDS011;44177;43.356;27.672;2022-12-18T12:00:15;15.63;;;10.50;;
58372;SDS011;44177;43.356;27.672;2022-12-18T12:18:01;18.38;;;11.07;;
58372;SDS011;44177;43.356;27.672;2022-12-18T12:26:04;16.27;;;10.55;;
58372;SDS011;44177;43.356;27.672;2022-12-18T12:28:56;14.95;;;10.15;;
58372;SDS011;44177;43.356;27.672;2022-12-18T12:39:27;15.55;;;10.38;;
58372;SDS011;44177;43.356;27.672;2022-12-18T12:42:05;15.88;;;10.13;;
58372;SDS011;44177;43.356;27.672;2022-12-18T12:45:09;15.60;;;10.15;;
58372;SDS011;44177;43.356;27.672;2022-12-18T12:47:44;16.52;;;10.40;;
58372;SDS011;44177;43.356;27.672;2022-12-18T12:50:14;16.90;;;10.05;;
58372;SDS011;44177;43.356;27.672;2022-12-18T12:52:52;18.38;;;10.77;;
58372;SDS011;44177;43.356;27.672;2022-12-18T12:55:21;16.55;;;10.55;;
58372;SDS011;44177;43.356;27.672;2022-12-18T12:58:00;17.00;;;11.20;;
58372;SDS011;44177;43.356;27.672;2022-12-18T13:00:40;16.02;;;10.25;;
58372;SDS011;44177;43.356;27.672;2022-12-18T13:06:08;15.07;;;10.20;;
58372;SDS011;44177;43.356;27.672;2022-12-18T13:08:57;16.40;;;10.23;;
58372;SDS011;44177;43.356;27.672;2022-12-18T13:11:29;17.27;;;10.90;;
58372;SDS011;44177;43.356;27.672;2022-12-18T13:14:35;16.65;;;10.50;;
58372;SDS011;44177;43.356;27.672;2022-12-18T13:25:01;16.77;;;10.65;;
58372;SDS011;44177;43.356;27.672;2022-12-18T13:35:51;15.63;;;10.27;;
58372;SDS011;44177;43.356;27.672;2022-12-18T13:38:36;16.05;;;10.48;;
58372;SDS011;44177;43.356;27.672;2022-12-18T13:43:47;17.27;;;10.48;;
58372;SDS011;44177;43.356;27.672;2022-12-18T13:48:58;16.70;;;10.43;;
58372;SDS011;44177;43.356;27.672;2022-12-18T13:51:24;16.35;;;9.95;;
58372;SDS011;44177;43.356;27.672;2022-12-18T13:53:52;18.27;;;10.60;;
58372;SDS011;44177;43.356;27.672;2022-12-18T13:56:27;17.15;;;10.40;;
58372;SDS011;44177;43.356;27.672;2022-12-18T13:59:14;17.08;;;11.02;;
58372;SDS011;44177;43.356;27.672;2022-12-18T14:01:45;18.17;;;9.95;;
58372;SDS011;44177;43.356;27.672;2022-12-18T14:04:23;16.50;;;10.60;;
58372;SDS011;44177;43.356;27.672;2022-12-18T14:06:54;16.20;;;10.00;;
58372;SDS011;44177;43.356;27.672;2022-12-18T14:09:27;16.40;;;10.38;;
58372;SDS011;44177;43.356;27.672;2022-12-18T14:11:55;17.08;;;10.40;;
58372;SDS011;44177;43.356;27.672;2022-12-18T14:14:41;17.75;;;10.45;;
58372;SDS011;44177;43.356;27.672;2022-12-18T14:17:11;15.73;;;10.27;;
58372;SDS011;44177;43.356;27.672;2022-12-18T14:19:48;15.90;;;10.23;;
58372;SDS011;44177;43.356;27.672;2022-12-18T14:22:22;17.60;;;10.70;;
58372;SDS011;44177;43.356;27.672;2022-12-18T14:27:41;16.85;;;10.50;;
58372;SDS011;44177;43.356;27.672;2022-12-18T14:33:00;16.10;;;10.40;;
58372;SDS011;44177;43.356;27.672;2022-12-18T14:35:25;18.13;;;10.40;;
58372;SDS011;44177;43.356;27.672;2022-12-18T14:37:51;16.40;;;10.48;;
58372;SDS011;44177;43.356;27.672;2022-12-18T14:40:16;16.15;;;10.38;;
58372;SDS011;44177;43.356;27.672;2022-12-18T14:42:42;15.50;;;10.18;;
58372;SDS011;44177;43.356;27.672;2022-12-18T14:48:01;17.70;;;10.73;;
58372;SDS011;44177;43.356;27.672;2022-12-18T14:50:38;16.15;;;10.45;;
58372;SDS011;44177;43.356;27.672;2022-12-18T14:53:18;17.08;;;10.85;;
58372;SDS011;44177;43.356;27.672;2022-12-18T14:55:46;15.68;;;10.45;;
58372;SDS011;44177;43.356;27.672;2022-12-18T14:58:13;17.25;;;10.55;;
58372;SDS011;44177;43.356;27.672;2022-12-18T15:00:41;17.05;;;10.32;;
58372;SDS011;44177;43.356;27.672;2022-12-18T15:03:07;17.55;;;10.90;;
58372;SDS011;44177;43.356;27.672;2022-12-18T15:05:34;17.65;;;10.35;;
58372;SDS011;44177;43.356;27.672;2022-12-18T15:08:00;18.23;;;11.15;;
58372;SDS011;44177;43.356;27.672;2022-12-18T15:10:30;16.88;;;10.68;;
58372;SDS011;44177;43.356;27.672;2022-12-18T15:20:39;16.13;;;10.13;;
58372;SDS011;44177;43.356;27.672;2022-12-18T15:23:45;17.02;;;10.52;;
58372;SDS011;44177;43.356;27.672;2022-12-18T15:26:03;14.32;;;9.70;;
58372;SDS011;44177;43.356;27.672;2022-12-18T15:28:37;16.92;;;10.52;;
58372;SDS011;44177;43.356;27.672;2022-12-18T15:33:38;16.58;;;10.35;;
58372;SDS011;44177;43.356;27.672;2022-12-18T15:36:08;17.58;;;10.63;;
58372;SDS011;44177;43.356;27.672;2022-12-18T15:38:35;17.45;;;10.50;;
58372;SDS011;44177;43.356;27.672;2022-12-18T15:41:01;17.45;;;10.40;;
58372;SDS011;44177;43.356;27.672;2022-12-18T15:43:30;18.55;;;11.13;;
58372;SDS011;44177;43.356;27.672;2022-12-18T15:46:03;17.13;;;10.13;;
58372;SDS011;44177;43.356;27.672;2022-12-18T15:48:30;17.13;;;10.82;;
58372;SDS011;44177;43.356;27.672;2022-12-18T15:50:58;16.55;;;10.48;;
58372;SDS011;44177;43.356;27.672;2022-12-18T15:53:24;18.40;;;10.32;;
58372;SDS011;44177;43.356;27.672;2022-12-18T15:55:53;18.35;;;10.73;;
58372;SDS011;44177;43.356;27.672;2022-12-18T15:58:37;16.98;;;10.95;;
58372;SDS011;44177;43.356;27.672;2022-12-18T16:01:02;16.98;;;10.57;;
58372;SDS011;44177;43.356;27.672;2022-12-18T16:03:28;17.77;;;11.30;;
58372;SDS011;44177;43.356;27.672;2022-12-18T16:05:53;16.70;;;10.45;;
58372;SDS011;44177;43.356;27.672;2022-12-18T16:08:19;15.68;;;10.07;;
58372;SDS011;44177;43.356;27.672;2022-12-18T16:10:44;16.15;;;10.25;;
58372;SDS011;44177;43.356;27.672;2022-12-18T16:13:10;15.70;;;10.15;;
58372;SDS011;44177;43.356;27.672;2022-12-18T16:15:36;19.20;;;10.88;;
58372;SDS011;44177;43.356;27.672;2022-12-18T16:18:02;15.77;;;10.40;;
58372;SDS011;44177;43.356;27.672;2022-12-18T16:20:27;16.58;;;10.30;;
58372;SDS011;44177;43.356;27.672;2022-12-18T16:22:53;14.38;;;10.05;;
58372;SDS011;44177;43.356;27.672;2022-12-18T16:25:22;17.90;;;10.40;;
58372;SDS011;44177;43.356;27.672;2022-12-18T16:27:50;15.10;;;10.07;;
58372;SDS011;44177;43.356;27.672;2022-12-18T16:30:18;15.52;;;9.50;;
58372;SDS011;44177;43.356;27.672;2022-12-18T16:32:45;15.38;;;10.10;;
58372;SDS011;44177;43.356;27.672;2022-12-18T16:35:14;16.48;;;9.77;;
58372;SDS011;44177;43.356;27.672;2022-12-18T16:37:41;14.35;;;9.93;;
58372;SDS011;44177;43.356;27.672;2022-12-18T16:40:09;16.88;;;9.90;;
58372;SDS011;44177;43.356;27.672;2022-12-18T16:42:36;14.27;;;9.23;;
58372;SDS011;44177;43.356;27.672;2022-12-18T16:45:04;14.52;;;9.55;;
58372;SDS011;44177;43.356;27.672;2022-12-18T16:47:30;13.85;;;9.43;;
58372;SDS011;44177;43.356;27.672;2022-12-18T16:49:56;13.93;;;9.55;;